sensor_id;sensor_type;location;lat;lon;timestamp;pressure;altitude;pressure_sealevel;temperature;humidity
62617;BME280;62539;51.190;6.808;2022-07-29T00:01:33;101237.66;;;25.09;42.83
62617;BME280;62539;51.190;6.808;2022-07-29T00:03:58;101242.97;;;25.09;42.67
62617;BME280;62539;51.190;6.808;2022-07-29T00:06:24;101235.00;;;25.09;42.36
62617;BME280;62539;51.190;6.808;2022-07-29T00:08:49;101228.84;;;25.08;42.69
62617;BME280;62539;51.190;6.808;2022-07-29T00:11:15;101229.78;;;25.07;42.75
62617;BME280;62539;51.190;6.808;2022-07-29T00:13:40;101227.03;;;25.09;42.68
62617;BME280;62539;51.190;6.808;2022-07-29T00:16:05;101227.97;;;25.08;42.40
62617;BME280;62539;51.190;6.808;2022-07-29T00:18:31;101221.84;;;25.07;42.58
62617;BME280;62539;51.190;6.808;2022-07-29T00:20:56;101215.59;;;25.08;42.27
62617;BME280;62539;51.190;6.808;2022-07-29T00:23:22;101214.72;;;25.08;42.41
62617;BME280;62539;51.190;6.808;2022-07-29T00:25:47;101209.41;;;25.08;42.29
62617;BME280;62539;51.190;6.808;2022-07-29T00:28:13;101208.47;;;25.09;42.42
62617;BME280;62539;51.190;6.808;2022-07-29T00:30:38;101195.19;;;25.09;42.49
62617;BME280;62539;51.190;6.808;2022-07-29T00:33:03;101195.28;;;25.07;42.52
62617;BME280;62539;51.190;6.808;2022-07-29T00:35:29;101192.63;;;25.07;42.47
62617;BME280;62539;51.190;6.808;2022-07-29T00:38:11;101191.69;;;25.08;42.54
62617;BME280;62539;51.190;6.808;2022-07-29T00:40:38;101195.19;;;25.09;42.70
62617;BME280;62539;51.190;6.808;2022-07-29T00:43:03;101194.34;;;25.08;42.33
62617;BME280;62539;51.190;6.808;2022-07-29T00:45:29;101181.16;;;25.07;42.67
62617;BME280;62539;51.190;6.808;2022-07-29T00:47:55;101178.50;;;25.07;42.33
62617;BME280;62539;51.190;6.808;2022-07-29T00:50:21;101176.72;;;25.07;42.59
62617;BME280;62539;51.190;6.808;2022-07-29T00:52:47;101169.59;;;25.08;42.26
62617;BME280;62539;51.190;6.808;2022-07-29T00:55:14;101174.91;;;25.08;42.27
62617;BME280;62539;51.190;6.808;2022-07-29T00:57:42;101171.31;;;25.09;42.34
62617;BME280;62539;51.190;6.808;2022-07-29T01:00:11;101164.28;;;25.08;42.23
62617;BME280;62539;51.190;6.808;2022-07-29T01:02:39;101168.75;;;25.07;42.57
62617;BME280;62539;51.190;6.808;2022-07-29T01:05:05;101165.22;;;25.07;42.65
62617;BME280;62539;51.190;6.808;2022-07-29T01:07:36;101153.75;;;25.06;42.55
62617;BME280;62539;51.190;6.808;2022-07-29T01:10:07;101152.91;;;25.06;42.65
62617;BME280;62539;51.190;6.808;2022-07-29T01:12:35;101152.81;;;25.07;42.27
62617;BME280;62539;51.190;6.808;2022-07-29T01:15:05;101159.91;;;25.07;42.33
62617;BME280;62539;51.190;6.808;2022-07-29T01:17:39;101150.25;;;25.06;42.24
62617;BME280;62539;51.190;6.808;2022-07-29T01:20:26;101145.03;;;25.04;42.22
62617;BME280;62539;51.190;6.808;2022-07-29T01:23:18;101145.88;;;25.05;42.69
62617;BME280;62539;51.190;6.808;2022-07-29T01:29:25;101144.16;;;25.04;42.26
62617;BME280;62539;51.190;6.808;2022-07-29T01:32:25;101140.72;;;25.02;42.67
62617;BME280;62539;51.190;6.808;2022-07-29T01:34:55;101145.09;;;25.03;42.64
62617;BME280;62539;51.190;6.808;2022-07-29T01:37:38;101141.59;;;25.02;42.73
62617;BME280;62539;51.190;6.808;2022-07-29T01:40:12;101146.03;;;25.02;42.61
62617;BME280;62539;51.190;6.808;2022-07-29T01:42:56;101154.00;;;25.02;42.57
62617;BME280;62539;51.190;6.808;2022-07-29T01:45:45;101153.22;;;25.00;42.40
62617;BME280;62539;51.190;6.808;2022-07-29T01:48:23;101150.41;;;25.03;42.85
62617;BME280;62539;51.190;6.808;2022-07-29T01:50:59;101153.06;;;25.03;42.71
62617;BME280;62539;51.190;6.808;2022-07-29T01:53:34;101150.41;;;25.03;42.53
62617;BME280;62539;51.190;6.808;2022-07-29T01:56:08;101149.63;;;25.01;42.71
62617;BME280;62539;51.190;6.808;2022-07-29T01:58:39;101146.03;;;25.02;42.80
62617;BME280;62539;51.190;6.808;2022-07-29T02:01:09;101136.38;;;25.01;42.80
62617;BME280;62539;51.190;6.808;2022-07-29T02:03:38;101143.50;;;25.00;42.54
62617;BME280;62539;51.190;6.808;2022-07-29T02:06:07;101136.81;;;24.93;42.92
62617;BME280;62539;51.190;6.808;2022-07-29T02:08:37;101140.91;;;24.99;42.79
62617;BME280;62539;51.190;6.808;2022-07-29T02:11:05;101140.91;;;24.99;42.71
62617;BME280;62539;51.190;6.808;2022-07-29T02:13:34;101145.28;;;25.00;42.88
62617;BME280;62539;51.190;6.808;2022-07-29T02:16:04;101152.41;;;24.99;42.52
62617;BME280;62539;51.190;6.808;2022-07-29T02:18:33;101146.31;;;24.97;42.68
62617;BME280;62539;51.190;6.808;2022-07-29T02:21:02;101151.97;;;24.91;42.63
62617;BME280;62539;51.190;6.808;2022-07-29T02:23:30;101153.41;;;24.97;42.95
62617;BME280;62539;51.190;6.808;2022-07-29T02:25:58;101153.50;;;24.95;42.90
62617;BME280;62539;51.190;6.808;2022-07-29T02:28:29;101158.72;;;24.97;42.91
62617;BME280;62539;51.190;6.808;2022-07-29T02:30:58;101166.69;;;24.97;42.91
62617;BME280;62539;51.190;6.808;2022-07-29T02:33:26;101166.69;;;24.97;42.82
62617;BME280;62539;51.190;6.808;2022-07-29T02:35:56;101163.19;;;24.96;42.90
62617;BME280;62539;51.190;6.808;2022-07-29T02:38:25;101159.59;;;24.97;42.85
62617;BME280;62539;51.190;6.808;2022-07-29T02:41:27;101158.72;;;24.97;42.97
62617;BME280;62539;51.190;6.808;2022-07-29T02:44:14;101163.19;;;24.96;42.86
62617;BME280;62539;51.190;6.808;2022-07-29T02:47:13;101158.03;;;24.93;42.94
62617;BME280;62539;51.190;6.808;2022-07-29T02:50:02;101164.19;;;24.93;42.57
62617;BME280;62539;51.190;6.808;2022-07-29T02:55:46;101173.81;;;24.96;42.55
62617;BME280;62539;51.190;6.808;2022-07-29T02:58:40;101166.06;;;24.91;42.52
62617;BME280;62539;51.190;6.808;2022-07-29T03:01:20;101166.06;;;24.91;42.58
62617;BME280;62539;51.190;6.808;2022-07-29T03:03:53;101174.81;;;24.93;42.56
62617;BME280;62539;51.190;6.808;2022-07-29T03:06:22;101177.47;;;24.93;43.06
62617;BME280;62539;51.190;6.808;2022-07-29T03:08:50;101184.47;;;24.94;42.52
62617;BME280;62539;51.190;6.808;2022-07-29T03:11:16;101196.03;;;24.93;42.57
62617;BME280;62539;51.190;6.808;2022-07-29T03:13:43;101194.31;;;24.92;42.86
62617;BME280;62539;51.190;6.808;2022-07-29T03:16:10;101202.22;;;24.94;42.59
62617;BME280;62539;51.190;6.808;2022-07-29T03:18:38;101200.50;;;24.93;42.72
62617;BME280;62539;51.190;6.808;2022-07-29T03:21:04;101209.31;;;24.93;42.94
62617;BME280;62539;51.190;6.808;2022-07-29T03:23:29;101216.44;;;24.93;42.87
62617;BME280;62539;51.190;6.808;2022-07-29T03:25:55;101226.19;;;24.92;42.93
62617;BME280;62539;51.190;6.808;2022-07-29T03:28:22;101219.94;;;24.93;42.50
62617;BME280;62539;51.190;6.808;2022-07-29T03:30:48;101225.22;;;24.93;42.73
62617;BME280;62539;51.190;6.808;2022-07-29T03:33:14;101216.44;;;24.93;42.87
62617;BME280;62539;51.190;6.808;2022-07-29T03:35:40;101231.47;;;24.92;42.70
62617;BME280;62539;51.190;6.808;2022-07-29T03:38:06;101235.84;;;24.93;42.90
62617;BME280;62539;51.190;6.808;2022-07-29T03:40:38;101230.63;;;24.92;42.76
62617;BME280;62539;51.190;6.808;2022-07-29T03:43:10;101232.34;;;24.93;42.99
62617;BME280;62539;51.190;6.808;2022-07-29T03:45:38;101220.88;;;24.92;42.78
62617;BME280;62539;51.190;6.808;2022-07-29T03:48:10;101218.31;;;24.91;42.63
62617;BME280;62539;51.190;6.808;2022-07-29T03:50:40;101211.19;;;24.91;42.72
62617;BME280;62539;51.190;6.808;2022-07-29T03:53:06;101207.69;;;24.91;42.79
62617;BME280;62539;51.190;6.808;2022-07-29T03:55:41;101204.28;;;24.89;43.12
62617;BME280;62539;51.190;6.808;2022-07-29T03:58:09;101198.97;;;24.89;42.80
62617;BME280;62539;51.190;6.808;2022-07-29T04:00:36;101192.78;;;24.88;42.78
62617;BME280;62539;51.190;6.808;2022-07-29T04:03:03;101187.47;;;24.88;43.00
62617;BME280;62539;51.190;6.808;2022-07-29T04:05:30;101184.06;;;24.86;42.98
62617;BME280;62539;51.190;6.808;2022-07-29T04:07:55;101184.06;;;24.86;43.05
62617;BME280;62539;51.190;6.808;2022-07-29T04:10:21;101183.22;;;24.86;43.13
62617;BME280;62539;51.190;6.808;2022-07-29T04:12:48;101179.69;;;24.85;43.31
62617;BME280;62539;51.190;6.808;2022-07-29T04:15:14;101182.50;;;24.82;43.37
62617;BME280;62539;51.190;6.808;2022-07-29T04:17:39;101189.63;;;24.82;43.40
62617;BME280;62539;51.190;6.808;2022-07-29T04:20:05;101197.66;;;24.80;42.97
62617;BME280;62539;51.190;6.808;2022-07-29T04:22:31;101212.63;;;24.81;43.46
62617;BME280;62539;51.190;6.808;2022-07-29T04:24:56;101203.91;;;24.79;43.58
62617;BME280;62539;51.190;6.808;2022-07-29T04:27:22;101198.59;;;24.79;43.47
62617;BME280;62539;51.190;6.808;2022-07-29T04:29:47;101199.47;;;24.79;43.36
62617;BME280;62539;51.190;6.808;2022-07-29T04:32:13;101203.91;;;24.79;43.42
62617;BME280;62539;51.190;6.808;2022-07-29T04:34:38;101200.47;;;24.77;43.44
62617;BME280;62539;51.190;6.808;2022-07-29T04:37:03;101199.47;;;24.79;43.65
62617;BME280;62539;51.190;6.808;2022-07-29T04:39:29;101191.66;;;24.76;43.66
62617;BME280;62539;51.190;6.808;2022-07-29T04:41:54;101204.06;;;24.76;43.41
62617;BME280;62539;51.190;6.808;2022-07-29T04:44:20;101205.78;;;24.77;43.70
62617;BME280;62539;51.190;6.808;2022-07-29T04:46:45;101202.34;;;24.75;43.62
62617;BME280;62539;51.190;6.808;2022-07-29T04:49:11;101197.03;;;24.75;43.66
62617;BME280;62539;51.190;6.808;2022-07-29T04:51:36;101188.31;;;24.73;43.53
62617;BME280;62539;51.190;6.808;2022-07-29T04:54:02;101175.06;;;24.73;43.72
62617;BME280;62539;51.190;6.808;2022-07-29T04:56:28;101172.41;;;24.73;43.88
62617;BME280;62539;51.190;6.808;2022-07-29T04:58:53;101175.06;;;24.73;43.58
62617;BME280;62539;51.190;6.808;2022-07-29T05:01:19;101181.25;;;24.72;43.75
62617;BME280;62539;51.190;6.808;2022-07-29T05:03:45;101195.47;;;24.71;43.68
62617;BME280;62539;51.190;6.808;2022-07-29T05:06:11;101191.97;;;24.70;44.07
62617;BME280;62539;51.190;6.808;2022-07-29T05:08:36;101190.25;;;24.69;43.67
62617;BME280;62539;51.190;6.808;2022-07-29T05:11:02;101193.75;;;24.70;43.82
62617;BME280;62539;51.190;6.808;2022-07-29T05:13:28;101185.78;;;24.70;43.77
62617;BME280;62539;51.190;6.808;2022-07-29T05:15:54;101192.03;;;24.69;43.78
62617;BME280;62539;51.190;6.808;2022-07-29T05:18:19;101200.88;;;24.69;43.76
62617;BME280;62539;51.190;6.808;2022-07-29T05:20:45;101214.13;;;24.69;44.07
62617;BME280;62539;51.190;6.808;2022-07-29T05:23:10;101214.13;;;24.69;43.81
62617;BME280;62539;51.190;6.808;2022-07-29T05:25:38;101212.31;;;24.70;43.86
62617;BME280;62539;51.190;6.808;2022-07-29T05:28:03;101204.38;;;24.70;43.79
62617;BME280;62539;51.190;6.808;2022-07-29T05:30:29;101195.63;;;24.67;44.16
62617;BME280;62539;51.190;6.808;2022-07-29T05:32:54;101207.19;;;24.66;44.39
62617;BME280;62539;51.190;6.808;2022-07-29T05:35:19;101202.66;;;24.69;44.10
62617;BME280;62539;51.190;6.808;2022-07-29T05:37:45;101196.50;;;24.68;44.13
62617;BME280;62539;51.190;6.808;2022-07-29T05:40:10;101206.94;;;24.71;43.96
62617;BME280;62539;51.190;6.808;2022-07-29T05:42:36;101201.56;;;24.73;44.29
62617;BME280;62539;51.190;6.808;2022-07-29T05:45:03;101199.81;;;24.73;44.38
62617;BME280;62539;51.190;6.808;2022-07-29T05:47:28;101204.22;;;24.73;43.98
62617;BME280;62539;51.190;6.808;2022-07-29T05:49:54;101213.09;;;24.72;44.18
62617;BME280;62539;51.190;6.808;2022-07-29T05:52:20;101213.44;;;24.65;44.73
62617;BME280;62539;51.190;6.808;2022-07-29T05:54:46;101213.25;;;24.69;44.83
62617;BME280;62539;51.190;6.808;2022-07-29T05:57:18;101209.66;;;24.70;44.53
62617;BME280;62539;51.190;6.808;2022-07-29T05:59:46;101216.94;;;24.66;44.71
62617;BME280;62539;51.190;6.808;2022-07-29T06:02:12;101222.94;;;24.70;45.02
62617;BME280;62539;51.190;6.808;2022-07-29T06:04:38;101225.59;;;24.70;44.85
62617;BME280;62539;51.190;6.808;2022-07-29T06:07:03;101226.31;;;24.73;44.99
62617;BME280;62539;51.190;6.808;2022-07-29T06:09:29;101230.59;;;24.76;44.63
62617;BME280;62539;51.190;6.808;2022-07-29T06:11:54;101236.78;;;24.76;44.68
62617;BME280;62539;51.190;6.808;2022-07-29T06:14:20;101244.56;;;24.79;45.11
62617;BME280;62539;51.190;6.808;2022-07-29T06:16:45;101248.06;;;24.80;44.80
62617;BME280;62539;51.190;6.808;2022-07-29T06:19:11;101255.09;;;24.81;45.13
62617;BME280;62539;51.190;6.808;2022-07-29T06:21:37;101244.47;;;24.81;45.30
62617;BME280;62539;51.190;6.808;2022-07-29T06:24:06;101249.25;;;24.74;45.10
62617;BME280;62539;51.190;6.808;2022-07-29T06:26:32;101254.31;;;24.79;45.36
62617;BME280;62539;51.190;6.808;2022-07-29T06:28:58;101260.41;;;24.81;45.15
62617;BME280;62539;51.190;6.808;2022-07-29T06:31:24;101261.16;;;24.83;45.19
62617;BME280;62539;51.190;6.808;2022-07-29T06:33:49;101262.72;;;24.87;45.06
62617;BME280;62539;51.190;6.808;2022-07-29T06:36:15;101269.75;;;24.88;44.77
62617;BME280;62539;51.190;6.808;2022-07-29T06:38:40;101277.53;;;24.91;45.08
62617;BME280;62539;51.190;6.808;2022-07-29T06:41:08;101291.56;;;24.93;45.32
62617;BME280;62539;51.190;6.808;2022-07-29T06:43:39;101290.47;;;24.98;45.39
62617;BME280;62539;51.190;6.808;2022-07-29T06:46:14;101288.69;;;24.98;45.54
62617;BME280;62539;51.190;6.808;2022-07-29T06:48:42;101285.94;;;25.00;45.87
62617;BME280;62539;51.190;6.808;2022-07-29T06:51:09;101283.22;;;25.01;45.43
62617;BME280;62539;51.190;6.808;2022-07-29T06:53:35;101276.09;;;25.02;45.10
62617;BME280;62539;51.190;6.808;2022-07-29T06:56:05;101275.16;;;25.03;44.99
62617;BME280;62539;51.190;6.808;2022-07-29T06:58:33;101278.75;;;25.02;45.14
62617;BME280;62539;51.190;6.808;2022-07-29T07:01:05;101275.16;;;25.03;44.97
62617;BME280;62539;51.190;6.808;2022-07-29T07:03:31;101279.63;;;25.02;44.73
62617;BME280;62539;51.190;6.808;2022-07-29T07:05:57;101280.47;;;25.03;45.20
62617;BME280;62539;51.190;6.808;2022-07-29T07:08:23;101284.84;;;25.04;44.80
62617;BME280;62539;51.190;6.808;2022-07-29T07:10:50;101287.50;;;25.04;44.87
62617;BME280;62539;51.190;6.808;2022-07-29T07:13:16;101287.50;;;25.04;44.87
62617;BME280;62539;51.190;6.808;2022-07-29T07:15:45;101285.72;;;25.04;44.81
62617;BME280;62539;51.190;6.808;2022-07-29T07:18:13;101291.00;;;25.04;44.92
62617;BME280;62539;51.190;6.808;2022-07-29T07:20:39;101289.19;;;25.05;45.13
62617;BME280;62539;51.190;6.808;2022-07-29T07:23:05;101286.38;;;25.08;45.14
62617;BME280;62539;51.190;6.808;2022-07-29T07:25:31;101295.13;;;25.10;44.89
62617;BME280;62539;51.190;6.808;2022-07-29T07:27:57;101291.63;;;25.09;44.89
62617;BME280;62539;51.190;6.808;2022-07-29T07:30:22;101295.91;;;25.12;44.91
62617;BME280;62539;51.190;6.808;2022-07-29T07:32:48;101289.75;;;25.12;44.71
62617;BME280;62539;51.190;6.808;2022-07-29T07:35:14;101289.66;;;25.13;44.70
62617;BME280;62539;51.190;6.808;2022-07-29T07:37:39;101277.25;;;25.14;44.74
62617;BME280;62539;51.190;6.808;2022-07-29T07:40:09;101273.66;;;25.15;44.97
62617;BME280;62539;51.190;6.808;2022-07-29T07:42:37;101264.81;;;25.14;44.72
62617;BME280;62539;51.190;6.808;2022-07-29T07:45:03;101270.13;;;25.14;45.09
62617;BME280;62539;51.190;6.808;2022-07-29T07:47:31;101269.19;;;25.15;44.81
62617;BME280;62539;51.190;6.808;2022-07-29T07:49:56;101265.59;;;25.16;44.89
62617;BME280;62539;51.190;6.808;2022-07-29T07:52:22;101270.91;;;25.16;44.85
62617;BME280;62539;51.190;6.808;2022-07-29T07:54:48;101269.19;;;25.15;45.15
62617;BME280;62539;51.190;6.808;2022-07-29T07:57:14;101262.09;;;25.16;45.42
62617;BME280;62539;51.190;6.808;2022-07-29T07:59:40;101268.06;;;25.19;45.07
62617;BME280;62539;51.190;6.808;2022-07-29T08:02:07;101271.59;;;25.20;44.87
62617;BME280;62539;51.190;6.808;2022-07-29T08:04:34;101273.38;;;25.19;44.87
62617;BME280;62539;51.190;6.808;2022-07-29T08:06:59;101264.66;;;25.17;45.37
62617;BME280;62539;51.190;6.808;2022-07-29T08:09:27;101267.31;;;25.17;45.08
62617;BME280;62539;51.190;6.808;2022-07-29T08:11:53;101268.06;;;25.19;45.06
62617;BME280;62539;51.190;6.808;2022-07-29T08:14:20;101263.81;;;25.17;45.36
62617;BME280;62539;51.190;6.808;2022-07-29T08:16:46;101276.22;;;25.16;45.41
62617;BME280;62539;51.190;6.808;2022-07-29T08:19:11;101279.81;;;25.15;45.66
62617;BME280;62539;51.190;6.808;2022-07-29T08:21:37;101281.50;;;25.16;45.51
62617;BME280;62539;51.190;6.808;2022-07-29T08:24:03;101282.28;;;25.18;45.63
62617;BME280;62539;51.190;6.808;2022-07-29T08:26:48;101277.75;;;25.20;45.54
62617;BME280;62539;51.190;6.808;2022-07-29T08:29:13;101270.56;;;25.22;45.22
62617;BME280;62539;51.190;6.808;2022-07-29T08:31:39;101271.59;;;25.20;45.56
62617;BME280;62539;51.190;6.808;2022-07-29T08:34:06;101282.22;;;25.20;45.21
62617;BME280;62539;51.190;6.808;2022-07-29T08:36:33;101284.00;;;25.19;45.34
62617;BME280;62539;51.190;6.808;2022-07-29T08:38:59;101279.63;;;25.18;45.18
62617;BME280;62539;51.190;6.808;2022-07-29T08:41:25;101269.88;;;25.19;45.52
62617;BME280;62539;51.190;6.808;2022-07-29T08:43:51;101269.00;;;25.18;45.56
62617;BME280;62539;51.190;6.808;2022-07-29T08:46:19;101259.25;;;25.19;45.54
62617;BME280;62539;51.190;6.808;2022-07-29T08:48:46;101260.09;;;25.19;45.34
62617;BME280;62539;51.190;6.808;2022-07-29T08:51:18;101256.50;;;25.20;45.14
62617;BME280;62539;51.190;6.808;2022-07-29T08:53:46;101252.91;;;25.21;45.29
62617;BME280;62539;51.190;6.808;2022-07-29T08:56:15;101260.88;;;25.21;45.52
62617;BME280;62539;51.190;6.808;2022-07-29T08:58:42;101266.19;;;25.21;45.35
62617;BME280;62539;51.190;6.808;2022-07-29T09:01:08;101264.41;;;25.22;45.67
62617;BME280;62539;51.190;6.808;2022-07-29T09:03:37;101273.22;;;25.22;45.23
62617;BME280;62539;51.190;6.808;2022-07-29T09:06:04;101272.38;;;25.22;45.41
62617;BME280;62539;51.190;6.808;2022-07-29T09:08:31;101269.72;;;25.22;45.67
62617;BME280;62539;51.190;6.808;2022-07-29T09:10:57;101270.56;;;25.22;45.53
62617;BME280;62539;51.190;6.808;2022-07-29T09:13:25;101277.59;;;25.23;45.30
62617;BME280;62539;51.190;6.808;2022-07-29T09:15:51;101273.97;;;25.24;45.60
62617;BME280;62539;51.190;6.808;2022-07-29T09:21:02;101274.75;;;25.27;45.59
62617;BME280;62539;51.190;6.808;2022-07-29T09:24:07;101281.00;;;25.25;45.64
62617;BME280;62539;51.190;6.808;2022-07-29T09:26:39;101280.06;;;25.27;45.57
62617;BME280;62539;51.190;6.808;2022-07-29T09:29:19;101285.47;;;25.25;45.31
62617;BME280;62539;51.190;6.808;2022-07-29T09:31:50;101284.59;;;25.24;45.51
62617;BME280;62539;51.190;6.808;2022-07-29T09:34:22;101281.94;;;25.24;45.74
62617;BME280;62539;51.190;6.808;2022-07-29T09:36:53;101289.06;;;25.24;45.45
62617;BME280;62539;51.190;6.808;2022-07-29T09:42:02;101279.28;;;25.24;45.57
62617;BME280;62539;51.190;6.808;2022-07-29T09:44:49;101275.88;;;25.22;45.38
62617;BME280;62539;51.190;6.808;2022-07-29T09:47:16;101274.84;;;25.25;45.73
62617;BME280;62539;51.190;6.808;2022-07-29T09:49:58;101281.94;;;25.24;45.77
62617;BME280;62539;51.190;6.808;2022-07-29T09:52:29;101287.19;;;25.26;45.80
62617;BME280;62539;51.190;6.808;2022-07-29T09:55:07;101279.47;;;25.21;45.71
62617;BME280;62539;51.190;6.808;2022-07-29T09:57:34;101293.19;;;25.30;45.43
62617;BME280;62539;51.190;6.808;2022-07-29T10:00:10;101293.19;;;25.30;45.48
62617;BME280;62539;51.190;6.808;2022-07-29T10:02:39;101293.19;;;25.30;45.50
62617;BME280;62539;51.190;6.808;2022-07-29T10:05:17;101294.03;;;25.30;45.81
62617;BME280;62539;51.190;6.808;2022-07-29T10:10:22;101294.72;;;25.34;45.60
62617;BME280;62539;51.190;6.808;2022-07-29T10:12:56;101293.78;;;25.35;45.54
62617;BME280;62539;51.190;6.808;2022-07-29T10:15:27;101299.09;;;25.35;45.68
62617;BME280;62539;51.190;6.808;2022-07-29T10:17:58;101293.78;;;25.35;45.81
62617;BME280;62539;51.190;6.808;2022-07-29T10:20:26;101287.53;;;25.36;45.54
62617;BME280;62539;51.190;6.808;2022-07-29T10:22:53;101294.53;;;25.37;45.77
62617;BME280;62539;51.190;6.808;2022-07-29T10:25:19;101299.03;;;25.36;45.81
62617;BME280;62539;51.190;6.808;2022-07-29T10:27:47;101291.88;;;25.37;45.84
62617;BME280;62539;51.190;6.808;2022-07-29T10:30:14;101299.03;;;25.36;45.93
62617;BME280;62539;51.190;6.808;2022-07-29T10:39:19;101301.56;;;25.38;45.91
62617;BME280;62539;51.190;6.808;2022-07-29T10:42:16;101302.34;;;25.40;45.63
62617;BME280;62539;51.190;6.808;2022-07-29T10:44:44;101300.41;;;25.44;45.80
62617;BME280;62539;51.190;6.808;2022-07-29T10:47:26;101296.88;;;25.43;45.63
62617;BME280;62539;51.190;6.808;2022-07-29T10:50:01;101299.38;;;25.46;45.74
62617;BME280;62539;51.190;6.808;2022-07-29T10:52:51;101295.91;;;25.44;45.56
62617;BME280;62539;51.190;6.808;2022-07-29T10:55:37;101295.09;;;25.44;45.52
62617;BME280;62539;51.190;6.808;2022-07-29T10:58:19;101302.13;;;25.45;45.57
62617;BME280;62539;51.190;6.808;2022-07-29T11:00:48;101298.44;;;25.47;45.78
62617;BME280;62539;51.190;6.808;2022-07-29T11:03:43;101307.34;;;25.46;45.57
62617;BME280;62539;51.190;6.808;2022-07-29T11:06:10;101299.22;;;25.49;45.91
62617;BME280;62539;51.190;6.808;2022-07-29T11:08:36;101297.31;;;25.51;45.82
62617;BME280;62539;51.190;6.808;2022-07-29T11:13:50;101296.81;;;25.61;45.68
62617;BME280;62539;51.190;6.808;2022-07-29T11:16:18;101303.50;;;25.68;45.52
62617;BME280;62539;51.190;6.808;2022-07-29T11:19:25;101289.84;;;25.74;45.31
62617;BME280;62539;51.190;6.808;2022-07-29T11:21:51;101299.00;;;25.85;45.18
62617;BME280;62539;51.190;6.808;2022-07-29T11:24:20;101299.19;;;25.97;44.85
62617;BME280;62539;51.190;6.808;2022-07-29T11:27:15;101299.84;;;26.01;44.62
62617;BME280;62539;51.190;6.808;2022-07-29T11:29:53;101299.47;;;26.07;44.32
62617;BME280;62539;51.190;6.808;2022-07-29T11:32:21;101296.63;;;26.10;44.45
62617;BME280;62539;51.190;6.808;2022-07-29T11:35:22;101296.06;;;26.05;44.53
62617;BME280;62539;51.190;6.808;2022-07-29T11:38:23;101295.22;;;26.05;44.47
62617;BME280;62539;51.190;6.808;2022-07-29T11:41:25;101296.56;;;26.12;44.53
62617;BME280;62539;51.190;6.808;2022-07-29T11:43:59;101295.19;;;26.21;44.01
62617;BME280;62539;51.190;6.808;2022-07-29T11:46:43;101292.63;;;26.19;44.43
62617;BME280;62539;51.190;6.808;2022-07-29T11:49:11;101305.81;;;26.21;44.19
62617;BME280;62539;51.190;6.808;2022-07-29T11:51:37;101303.75;;;26.26;44.42
62617;BME280;62539;51.190;6.808;2022-07-29T11:54:04;101296.34;;;26.31;44.41
62617;BME280;62539;51.190;6.808;2022-07-29T11:56:34;101288.13;;;26.36;43.87
62617;BME280;62539;51.190;6.808;2022-07-29T11:59:08;101295.81;;;26.40;44.07
62617;BME280;62539;51.190;6.808;2022-07-29T12:01:35;101292.00;;;26.45;43.74
62617;BME280;62539;51.190;6.808;2022-07-29T12:04:07;101292.78;;;26.47;43.72
62617;BME280;62539;51.190;6.808;2022-07-29T12:06:34;101289.16;;;26.48;43.83
62617;BME280;62539;51.190;6.808;2022-07-29T12:09:00;101284.59;;;26.50;43.58
62617;BME280;62539;51.190;6.808;2022-07-29T12:11:26;101294.66;;;26.45;43.97
62617;BME280;62539;51.190;6.808;2022-07-29T12:13:52;101293.91;;;26.42;43.79
62617;BME280;62539;51.190;6.808;2022-07-29T12:16:19;101287.06;;;26.38;44.16
62617;BME280;62539;51.190;6.808;2022-07-29T12:18:59;101289.91;;;26.35;44.08
62617;BME280;62539;51.190;6.808;2022-07-29T12:21:26;101295.50;;;26.31;44.34
62617;BME280;62539;51.190;6.808;2022-07-29T12:23:53;101291.44;;;26.39;44.01
62617;BME280;62539;51.190;6.808;2022-07-29T12:26:21;101290.13;;;26.47;44.40
62617;BME280;62539;51.190;6.808;2022-07-29T12:28:48;101292.97;;;26.58;44.04
62617;BME280;62539;51.190;6.808;2022-07-29T12:31:14;101293.25;;;26.68;44.12
62617;BME280;62539;51.190;6.808;2022-07-29T12:33:41;101283.00;;;26.76;43.74
62617;BME280;62539;51.190;6.808;2022-07-29T12:36:07;101288.91;;;26.81;44.07
62617;BME280;62539;51.190;6.808;2022-07-29T12:38:34;101289.41;;;26.88;43.93
62617;BME280;62539;51.190;6.808;2022-07-29T12:41:01;101294.16;;;26.97;43.96
62617;BME280;62539;51.190;6.808;2022-07-29T12:43:28;101295.50;;;27.05;43.59
62617;BME280;62539;51.190;6.808;2022-07-29T12:45:55;101299.50;;;27.12;43.45
62617;BME280;62539;51.190;6.808;2022-07-29T12:48:37;101299.19;;;27.17;43.47
62617;BME280;62539;51.190;6.808;2022-07-29T12:51:05;101296.25;;;27.21;43.72
62617;BME280;62539;51.190;6.808;2022-07-29T12:53:33;101288.63;;;27.15;43.24
62617;BME280;62539;51.190;6.808;2022-07-29T12:55:59;101284.09;;;27.03;42.47
62617;BME280;62539;51.190;6.808;2022-07-29T13:03:51;101286.56;;;26.91;43.04
62617;BME280;62539;51.190;6.808;2022-07-29T13:06:39;101286.06;;;26.99;43.26
62617;BME280;62539;51.190;6.808;2022-07-29T13:09:08;101284.25;;;27.14;42.99
62617;BME280;62539;51.190;6.808;2022-07-29T13:11:50;101288.81;;;27.26;42.84
62617;BME280;62539;51.190;6.808;2022-07-29T13:14:33;101287.47;;;27.34;43.04
62617;BME280;62539;51.190;6.808;2022-07-29T13:17:15;101284.22;;;27.43;42.74
62617;BME280;62539;51.190;6.808;2022-07-29T13:19:53;101283.84;;;27.49;43.16
62617;BME280;62539;51.190;6.808;2022-07-29T13:22:30;101278.31;;;27.52;42.91
62617;BME280;62539;51.190;6.808;2022-07-29T13:24:59;101286.00;;;27.57;42.98
62617;BME280;62539;51.190;6.808;2022-07-29T13:27:30;101287.63;;;27.60;43.07
62617;BME280;62539;51.190;6.808;2022-07-29T13:29:59;101288.19;;;27.65;43.18
62617;BME280;62539;51.190;6.808;2022-07-29T13:32:27;101290.53;;;27.69;42.96
62617;BME280;62539;51.190;6.808;2022-07-29T13:34:58;101285.88;;;27.73;43.21